Time;durP1;ratioP1;P1;durP2;ratioP2;P2;SDS_P1;SDS_P2;PMS_P1;PMS_P2;Temp;Humidity;BMP_temperature;BMP_pressure;BME280_temperature;BME280_humidity;BME280_pressure;Samples;Min_cycle;Max_cycle;Signal;HPM_P1;HPM_P2
2023/11/01 00:02:10;;;;;;;17.50;5.30;;;;;;;17.09;59.63;97971.90;67879;1273;1016623;-69
2023/11/01 00:05:12;;;;;;;17.30;5.20;;;;;;;17.14;59.42;97976.38;67898;1273;1016390;-68
2023/11/01 00:08:14;;;;;;;17.40;5.40;;;;;;;17.05;59.58;97976.08;67897;1273;1016642;-66
2023/11/01 00:11:17;;;;;;;19.20;5.40;;;;;;;17.09;59.53;97981.42;67841;1273;1016709;-69
2023/11/01 00:14:20;;;;;;;18.80;5.20;;;;;;;17.12;59.30;97982.88;67889;1273;1016410;-69
2023/11/01 00:17:22;;;;;;;17.20;5.30;;;;;;;17.19;59.05;97982.04;67838;1273;1016723;-66
2023/11/01 00:20:25;;;;;;;19.00;5.70;;;;;;;17.24;58.82;97985.10;67892;1273;1016408;-68
2023/11/01 00:23:28;;;;;;;17.20;5.20;;;;;;;17.29;58.63;97981.63;67911;1273;1016291;-69
2023/11/01 00:26:30;;;;;;;19.60;5.50;;;;;;;17.22;58.86;97984.72;67893;1273;1016333;-69
2023/11/01 00:29:32;;;;;;;14.90;4.80;;;;;;;17.20;58.90;97986.05;67831;1273;1016318;-66
2023/11/01 00:32:35;;;;;;;21.30;5.30;;;;;;;17.19;58.94;97989.12;67905;1273;1018761;-69
2023/11/01 00:35:37;;;;;;;15.30;5.10;;;;;;;17.14;59.04;97988.91;67915;1273;1016422;-69
2023/11/01 00:38:40;;;;;;;18.10;5.20;;;;;;;17.14;59.01;97991.02;67944;1273;1016871;-68
2023/11/01 00:41:42;;;;;;;16.60;5.30;;;;;;;17.22;58.72;97993.23;67886;1273;1016424;-68
2023/11/01 00:44:45;;;;;;;18.00;5.30;;;;;;;17.30;58.34;97997.02;67900;1273;1016282;-68
2023/11/01 00:47:47;;;;;;;19.60;5.30;;;;;;;17.20;58.42;97999.83;67937;1273;1016369;-68
2023/11/01 00:50:50;;;;;;;20.10;5.30;;;;;;;17.10;58.64;98000.65;67909;1273;1016458;-69
2023/11/01 00:53:52;;;;;;;16.90;5.00;;;;;;;17.04;58.68;98000.94;67952;1273;1016424;-68
2023/11/01 00:56:54;;;;;;;17.60;5.50;;;;;;;16.94;58.90;97998.84;67941;1273;1016479;-68
2023/11/01 00:59:57;;;;;;;18.80;5.30;;;;;;;16.83;59.05;98001.76;67864;1273;1016536;-69
2023/11/01 01:02:59;;;;;;;17.40;5.50;;;;;;;16.80;59.06;98000.27;67888;1273;1016465;-69
2023/11/01 01:06:02;;;;;;;18.90;5.40;;;;;;;16.78;59.02;98001.81;67904;1273;1016599;-67
2023/11/01 01:09:04;;;;;;;15.40;5.00;;;;;;;16.66;59.50;98004.61;67903;1273;1016639;-68
2023/11/01 01:12:06;;;;;;;17.10;5.30;;;;;;;16.68;59.33;98009.03;67932;1273;1016189;-69
2023/11/01 01:15:09;;;;;;;19.90;5.60;;;;;;;16.67;59.03;98005.27;67878;1273;1016278;-69
2023/11/01 01:18:14;;;;;;;20.40;5.70;;;;;;;16.53;59.50;98007.48;67749;1273;1016406;-68
2023/11/01 01:21:18;;;;;;;17.60;4.90;;;;;;;16.44;59.69;98018.27;67902;1273;1016477;-69
2023/11/01 01:24:20;;;;;;;14.80;4.70;;;;;;;16.35;59.87;98017.04;67913;1273;1016165;-67
2023/11/01 01:27:22;;;;;;;15.80;5.00;;;;;;;16.35;59.87;98019.08;67913;1273;1016288;-68
2023/11/01 01:30:25;;;;;;;15.80;5.60;;;;;;;16.42;59.57;98012.07;67916;1273;1016158;-68
2023/11/01 01:33:27;;;;;;;17.30;5.50;;;;;;;16.31;59.63;98016.86;67891;1273;1016800;-69
2023/11/01 01:36:33;;;;;;;24.00;6.00;;;;;;;16.18;60.19;98019.52;67915;1273;1016379;-69
2023/11/01 01:39:35;;;;;;;17.50;5.50;;;;;;;16.19;60.02;98015.52;67874;1273;1016440;-69
2023/11/01 01:42:38;;;;;;;19.40;5.80;;;;;;;16.22;60.07;98019.98;67867;1273;1016390;-69
2023/11/01 01:45:40;;;;;;;19.00;5.50;;;;;;;16.31;59.66;98021.42;67870;1273;1016071;-68
2023/11/01 01:48:42;;;;;;;20.80;6.00;;;;;;;16.43;59.41;98019.34;67923;1273;1016329;-69
2023/11/01 01:51:45;;;;;;;19.30;5.40;;;;;;;16.45;59.17;98022.88;67887;1273;1016672;-68
2023/11/01 01:54:47;;;;;;;17.60;5.40;;;;;;;16.54;58.83;98029.45;67929;1273;1016359;-68
2023/11/01 01:57:49;;;;;;;16.80;5.10;;;;;;;16.48;58.96;98021.76;67898;1273;1016471;-69
2023/11/01 02:00:52;;;;;;;16.90;5.00;;;;;;;16.41;59.00;98024.17;67864;1273;1016351;-68
2023/11/01 02:03:55;;;;;;;17.40;4.80;;;;;;;16.28;59.43;98028.38;67940;1273;1015738;-68
2023/11/01 02:06:58;;;;;;;19.10;5.60;;;;;;;16.34;59.43;98035.97;67877;1273;1016596;-69
2023/11/01 02:10:02;;;;;;;18.70;4.80;;;;;;;16.23;59.65;98033.48;67935;1273;1016372;-68
2023/11/01 02:13:05;;;;;;;16.70;4.90;;;;;;;16.04;60.34;98037.27;67934;1273;1016214;-69
2023/11/01 02:16:07;;;;;;;16.80;4.80;;;;;;;16.01;60.44;98042.80;67904;1273;1016481;-68
2023/11/01 02:19:11;;;;;;;16.50;4.70;;;;;;;16.02;60.29;98039.73;67884;1273;1017735;-68
2023/11/01 02:22:14;;;;;;;15.70;4.30;;;;;;;15.95;60.45;98056.50;67858;1273;1016367;-69
2023/11/01 02:25:16;;;;;;;16.30;4.50;;;;;;;15.92;60.33;98055.48;67878;1273;1016396;-69
2023/11/01 02:28:18;;;;;;;15.60;4.40;;;;;;;15.96;60.18;98052.65;67912;1273;1018633;-69
2023/11/01 02:31:21;;;;;;;17.50;4.50;;;;;;;16.07;59.74;98053.54;67908;1273;1016313;-68
2023/11/01 02:34:23;;;;;;;14.80;4.10;;;;;;;16.08;59.65;98058.18;67859;1273;1016364;-69
2023/11/01 02:37:25;;;;;;;13.50;4.10;;;;;;;16.03;59.67;98057.45;67891;1273;1016473;-69
2023/11/01 02:40:28;;;;;;;13.70;4.30;;;;;;;16.03;59.58;98061.72;67896;1273;1016390;-69
2023/11/01 02:43:30;;;;;;;14.60;4.40;;;;;;;15.99;59.75;98067.52;67884;1273;1016179;-69
2023/11/01 02:46:33;;;;;;;15.30;4.40;;;;;;;15.89;59.87;98064.58;67907;1273;1016383;-69
2023/11/01 02:49:35;;;;;;;17.30;4.50;;;;;;;15.84;60.07;98064.23;67895;1273;1017056;-69
2023/11/01 02:52:38;;;;;;;14.80;4.70;;;;;;;15.89;59.75;98063.94;67867;1273;1016543;-68
2023/11/01 02:55:40;;;;;;;15.90;4.50;;;;;;;15.83;59.79;98064.84;67913;1273;1016356;-69
2023/11/01 02:58:43;;;;;;;;;;;;;;;15.85;59.71;98067.07;67907;1273;1016355;-65
2023/11/01 03:01:45;;;;;;;19.70;4.80;;;;;;;15.84;59.66;98066.17;67922;1273;1016661;-69
2023/11/01 03:04:48;;;;;;;16.20;4.70;;;;;;;15.78;59.76;98073.70;67848;1273;1016198;-67
2023/11/01 03:07:50;;;;;;;12.70;4.10;;;;;;;15.81;59.53;98076.11;67880;1273;1016423;-66
2023/11/01 03:10:53;;;;;;;17.90;4.50;;;;;;;15.78;59.75;98083.41;67877;1273;1016482;-69
2023/11/01 03:13:55;;;;;;;15.10;4.50;;;;;;;15.78;59.74;98086.06;67923;1273;1016215;-69
2023/11/01 03:16:58;;;;;;;14.70;4.30;;;;;;;15.80;59.57;98085.21;67895;1273;1016209;-69
2023/11/01 03:20:00;;;;;;;15.90;4.50;;;;;;;15.86;59.21;98089.93;67896;1273;1016448;-68
2023/11/01 03:23:03;;;;;;;15.50;4.90;;;;;;;15.80;59.60;98090.30;67874;1273;1016375;-68
2023/11/01 03:26:06;;;;;;;14.50;4.60;;;;;;;15.73;59.76;98094.83;67873;1273;1016194;-64
2023/11/01 03:29:08;;;;;;;19.00;5.30;;;;;;;15.93;59.41;98096.64;67873;1273;1016477;-68
2023/11/01 03:32:11;;;;;;;15.50;4.60;;;;;;;15.97;59.37;98103.54;67887;1273;1017250;-69
2023/11/01 03:35:14;;;;;;;15.80;4.70;;;;;;;16.03;59.36;98102.81;67928;1271;1016490;-69
2023/11/01 03:38:17;;;;;;;16.60;4.60;;;;;;;16.05;59.28;98104.73;67871;1273;1016511;-68
2023/11/01 03:41:19;;;;;;;14.80;4.60;;;;;;;15.98;59.72;98108.88;67916;1273;1016316;-69
2023/11/01 03:44:21;;;;;;;14.60;4.60;;;;;;;16.09;59.53;98103.59;67931;1273;1016121;-70
2023/11/01 03:47:24;;;;;;;14.60;4.60;;;;;;;16.17;59.38;98105.11;67934;1273;1016294;-69
2023/11/01 03:50:26;;;;;;;15.30;4.80;;;;;;;16.18;59.61;98104.73;67911;1273;1016256;-69
2023/11/01 03:53:29;;;;;;;13.40;4.30;;;;;;;16.18;59.67;98103.27;67845;1273;1015983;-70
2023/11/01 03:56:31;;;;;;;20.20;5.50;;;;;;;16.09;60.03;98100.81;67938;1273;1017507;-69
2023/11/01 03:59:34;;;;;;;18.60;6.00;;;;;;;16.20;59.75;98103.49;67925;1273;1016362;-69
2023/11/01 04:02:36;;;;;;;20.50;5.60;;;;;;;16.23;59.68;98105.14;67921;1273;1015802;-69
2023/11/01 04:05:39;;;;;;;18.40;5.50;;;;;;;16.23;59.60;98107.55;67904;1273;1016451;-68
2023/11/01 04:08:41;;;;;;;17.00;5.30;;;;;;;16.12;60.02;98110.40;67942;1273;1017638;-70
2023/11/01 04:11:44;;;;;;;14.60;4.60;;;;;;;16.23;59.72;98113.08;67923;1273;1016215;-69
2023/11/01 04:14:46;;;;;;;12.10;4.10;;;;;;;16.32;59.44;98118.77;67880;1273;1016229;-69
2023/11/01 04:17:48;;;;;;;14.50;4.80;;;;;;;16.45;59.02;98115.21;67861;1273;1016251;-69
2023/11/01 04:20:51;;;;;;;14.40;4.10;;;;;;;16.47;59.13;98112.14;67895;1273;1016088;-69
2023/11/01 04:23:54;;;;;;;19.10;4.70;;;;;;;16.60;58.76;98112.51;67903;1273;1016286;-68
2023/11/01 04:26:56;;;;;;;17.60;4.80;;;;;;;16.64;58.67;98110.70;67882;1273;1017065;-67
2023/11/01 04:29:59;;;;;;;17.30;4.90;;;;;;;16.67;58.39;98112.71;67940;1273;1016196;-68
2023/11/01 04:33:01;;;;;;;17.10;5.30;;;;;;;16.68;58.43;98118.76;67900;1273;1016204;-68
2023/11/01 04:36:08;;;;;;;17.10;4.80;;;;;;;16.69;58.44;98119.05;67933;1273;1016294;-68
2023/11/01 04:39:11;;;;;;;17.30;4.60;;;;;;;16.67;58.35;98119.23;67891;1273;1016310;-67
2023/11/01 04:42:13;;;;;;;15.40;4.60;;;;;;;16.67;58.39;98122.02;67912;1273;1016248;-67
2023/11/01 04:45:15;;;;;;;12.30;4.00;;;;;;;16.81;57.88;98125.45;67907;1273;1016464;-67
2023/11/01 04:48:18;;;;;;;14.50;4.50;;;;;;;16.83;57.79;98126.67;67904;1273;1016277;-66
2023/11/01 04:51:20;;;;;;;14.70;4.70;;;;;;;16.80;57.82;98129.77;67891;1273;1016355;-68
2023/11/01 04:54:23;;;;;;;;;;;;;;;16.87;57.71;98129.73;67867;1273;1016482;-68
2023/11/01 04:57:25;;;;;;;13.50;4.50;;;;;;;16.85;57.70;98136.77;67922;1273;1016195;-68
2023/11/01 05:00:28;;;;;;;16.90;4.60;;;;;;;16.78;57.80;98135.47;67920;1273;1016349;-68
2023/11/01 05:03:30;;;;;;;16.70;4.90;;;;;;;16.71;58.01;98134.69;67915;1273;1016182;-68
2023/11/01 05:06:32;;;;;;;15.60;4.60;;;;;;;16.69;58.05;98134.80;67863;1273;1018096;-66
2023/11/01 05:09:35;;;;;;;20.60;4.70;;;;;;;16.66;58.09;98144.74;67872;1273;1016400;-68
2023/11/01 05:12:37;;;;;;;16.90;5.00;;;;;;;16.73;57.75;98149.91;67885;1273;1018425;-68
2023/11/01 05:15:40;;;;;;;15.70;4.90;;;;;;;16.70;57.88;98149.11;67908;1273;1016340;-68
2023/11/01 05:18:43;;;;;;;;;;;;;;;16.67;57.99;98153.13;67903;1273;1016429;-68
2023/11/01 05:21:45;;;;;;;17.30;5.30;;;;;;;16.61;58.03;98157.73;67859;1273;1017614;-66
2023/11/01 05:24:49;;;;;;;17.10;4.90;;;;;;;16.67;57.81;98160.20;67894;1273;1016293;-68
2023/11/01 05:27:51;;;;;;;18.30;5.10;;;;;;;16.73;57.60;98164.60;67863;1273;1016025;-68
2023/11/01 05:30:54;;;;;;;15.90;4.70;;;;;;;16.74;57.69;98170.08;67931;1273;1018396;-68
2023/11/01 05:33:56;;;;;;;15.70;5.10;;;;;;;16.80;57.50;98171.27;67914;1273;1016225;-67
2023/11/01 05:36:58;;;;;;;18.10;5.40;;;;;;;16.80;57.52;98176.77;67909;1273;1016387;-67
2023/11/01 05:40:01;;;;;;;19.80;5.40;;;;;;;16.78;57.57;98184.05;67914;1273;1016058;-68
2023/11/01 05:43:04;;;;;;;18.50;5.90;;;;;;;16.78;57.57;98183.13;67896;1273;1016244;-68
2023/11/01 05:46:07;;;;;;;16.70;5.20;;;;;;;16.83;57.36;98185.48;67866;1273;1016261;-68
2023/11/01 05:49:09;;;;;;;17.30;5.40;;;;;;;16.88;57.22;98188.77;67870;1273;1016128;-68
2023/11/01 05:52:12;;;;;;;18.70;4.80;;;;;;;16.96;57.11;98195.02;67923;1273;1017437;-68
2023/11/01 05:55:15;;;;;;;14.30;4.60;;;;;;;16.95;57.17;98198.97;67919;1273;1016398;-68
2023/11/01 05:58:18;;;;;;;17.20;5.10;;;;;;;17.06;56.81;98202.00;67884;1273;1016193;-68
2023/11/01 06:01:21;;;;;;;17.20;5.40;;;;;;;17.03;57.08;98205.09;67915;1273;1017683;-67
2023/11/01 06:04:23;;;;;;;17.20;5.00;;;;;;;16.94;57.32;98215.84;67898;1273;1016427;-68
2023/11/01 06:07:25;;;;;;;14.20;4.70;;;;;;;16.95;57.39;98217.90;67839;1273;1016389;-68
2023/11/01 06:10:28;;;;;;;13.10;4.80;;;;;;;16.94;57.26;98218.13;67857;1273;1016358;-68
2023/11/01 06:13:30;;;;;;;16.00;4.80;;;;;;;16.95;57.40;98225.46;67884;1273;1016451;-68
2023/11/01 06:16:33;;;;;;;15.90;5.10;;;;;;;16.96;57.41;98226.80;67919;1273;1016394;-67
2023/11/01 06:19:35;;;;;;;17.80;5.40;;;;;;;17.14;57.26;98228.94;67869;1273;1016481;-68
2023/11/01 06:22:37;;;;;;;15.10;5.00;;;;;;;17.19;56.98;98231.14;67890;1273;1016786;-67
2023/11/01 06:25:40;;;;;;;18.10;5.80;;;;;;;17.21;56.84;98234.48;67906;1273;1016364;-67
2023/11/01 06:28:43;;;;;;;19.70;6.00;;;;;;;17.26;56.74;98236.45;67951;1273;1016066;-67
2023/11/01 06:31:45;;;;;;;;;;;;;;;17.38;56.44;98242.16;67920;1273;1016535;-68
2023/11/01 06:34:47;;;;;;;20.80;7.50;;;;;;;17.34;56.47;98242.19;67858;1273;1016438;-68
2023/11/01 06:37:50;;;;;;;18.30;6.30;;;;;;;17.29;56.74;98244.63;67895;1273;1016407;-68
2023/11/01 06:40:52;;;;;;;19.20;6.40;;;;;;;17.37;56.57;98245.63;67912;1273;1016137;-66
2023/11/01 06:43:55;;;;;;;17.70;5.90;;;;;;;17.29;56.73;98245.52;67939;1273;1016322;-68
2023/11/01 06:46:57;;;;;;;20.10;6.40;;;;;;;17.46;56.37;98249.21;67939;1273;1016275;-66
2023/11/01 06:49:59;;;;;;;18.30;6.00;;;;;;;17.39;56.48;98256.58;67856;1273;1016284;-68
2023/11/01 06:53:02;;;;;;;18.10;5.40;;;;;;;17.43;56.28;98258.64;67833;1273;1016111;-68
2023/11/01 06:56:04;;;;;;;16.60;5.80;;;;;;;17.53;56.11;98261.71;67891;1273;1016410;-68
2023/11/01 06:59:07;;;;;;;18.20;5.80;;;;;;;17.69;55.72;98261.59;67937;1273;1016260;-68
2023/11/01 07:02:10;;;;;;;16.60;6.10;;;;;;;17.52;55.94;98271.00;67882;1273;1016516;-68
2023/11/01 07:05:12;;;;;;;19.90;6.10;;;;;;;17.53;56.17;98266.71;67871;1273;1016964;-68
2023/11/01 07:08:14;;;;;;;19.80;6.00;;;;;;;17.68;55.61;98262.95;67934;1273;1016278;-68
2023/11/01 07:11:18;;;;;;;19.90;6.40;;;;;;;17.69;55.66;98267.45;67920;1273;1016199;-68
2023/11/01 07:14:21;;;;;;;18.80;5.90;;;;;;;17.76;55.35;98270.73;67924;1273;1016413;-68
2023/11/01 07:17:26;;;;;;;23.00;7.00;;;;;;;17.78;54.99;98273.04;67902;1273;1018931;-68
2023/11/01 07:20:29;;;;;;;24.30;7.50;;;;;;;17.80;55.26;98268.61;67921;1273;1016198;-69
2023/11/01 07:23:31;;;;;;;19.30;6.70;;;;;;;17.79;54.97;98270.84;67914;1273;1016445;-68
2023/11/01 07:26:33;;;;;;;19.10;6.40;;;;;;;17.58;55.30;98276.45;67890;1273;1016418;-68
2023/11/01 07:29:36;;;;;;;19.20;6.90;;;;;;;17.53;55.33;98275.20;67924;1273;1016377;-68
2023/11/01 07:32:38;;;;;;;22.10;6.90;;;;;;;17.46;55.76;98278.13;67846;1273;1016034;-67
2023/11/01 07:35:41;;;;;;;;;;;;;;;17.65;55.25;98276.50;67950;1273;1016346;-68
2023/11/01 07:38:43;;;;;;;29.50;11.40;;;;;;;17.78;54.96;98275.76;67901;1273;1016377;-65
2023/11/01 07:41:45;;;;;;;24.80;6.90;;;;;;;17.81;55.32;98278.30;67862;1273;1016348;-68
2023/11/01 07:44:48;;;;;;;26.80;9.20;;;;;;;17.89;54.56;98279.71;67843;1273;1016358;-65
2023/11/01 07:47:50;;;;;;;20.70;6.50;;;;;;;17.92;54.54;98283.35;67868;1273;1016428;-69
2023/11/01 07:50:53;;;;;;;18.40;6.10;;;;;;;17.87;54.68;98285.59;67942;1273;1016465;-68
2023/11/01 07:53:55;;;;;;;20.00;6.30;;;;;;;17.97;54.67;98289.94;67899;1273;1018268;-68
2023/11/01 07:56:58;;;;;;;17.90;5.60;;;;;;;18.07;54.29;98286.36;67852;1273;1016676;-68
2023/11/01 08:00:02;;;;;;;;;;;;;;;18.07;54.03;98296.95;67908;1273;1016787;-68
2023/11/01 08:03:05;;;;;;;19.30;6.00;;;;;;;17.94;53.64;98301.05;67941;1273;1016400;-68
2023/11/01 08:06:07;;;;;;;19.70;6.10;;;;;;;17.89;53.94;98303.48;67924;1273;1016582;-68
2023/11/01 08:09:11;;;;;;;20.10;6.00;;;;;;;17.97;54.19;98306.40;67886;1273;1016255;-68
2023/11/01 08:12:14;;;;;;;17.50;5.40;;;;;;;18.11;53.75;98315.48;67888;1273;1016442;-67
2023/11/01 08:15:18;;;;;;;19.10;5.90;;;;;;;18.12;53.51;98313.77;67877;1273;1018071;-67
2023/11/01 08:18:21;;;;;;;19.00;5.90;;;;;;;18.15;53.46;98316.61;67900;1273;1016449;-67
2023/11/01 08:21:23;;;;;;;19.40;6.00;;;;;;;18.14;53.22;98309.98;67942;1273;1016428;-65
2023/11/01 08:24:25;;;;;;;18.90;5.60;;;;;;;18.29;53.42;98310.64;67899;1273;1015993;-67
2023/11/01 08:27:28;;;;;;;17.30;5.30;;;;;;;18.48;53.37;98316.64;67887;1273;1017560;-68
2023/11/01 08:30:31;;;;;;;18.00;5.30;;;;;;;18.62;52.85;98323.25;67940;1273;1016737;-68
2023/11/01 08:33:33;;;;;;;20.20;5.10;;;;;;;18.50;52.49;98323.21;67967;1273;1016384;-68
2023/11/01 08:36:35;;;;;;;19.10;5.10;;;;;;;18.24;52.97;98327.20;67922;1273;1016293;-68
2023/11/01 08:39:38;;;;;;;16.10;4.60;;;;;;;18.32;52.66;98328.05;67880;1273;1016473;-68
2023/11/01 08:42:40;;;;;;;17.50;4.80;;;;;;;18.34;52.49;98323.94;67859;1273;1015824;-65
2023/11/01 08:45:43;;;;;;;18.10;4.70;;;;;;;18.25;52.21;98335.12;67943;1273;1016847;-68
2023/11/01 08:48:45;;;;;;;;;;;;;;;18.35;51.90;98331.95;67927;1273;1016453;-67
2023/11/01 08:51:48;;;;;;;15.30;4.80;;;;;;;18.44;51.90;98336.20;67956;1273;1016408;-68
2023/11/01 08:54:50;;;;;;;17.60;4.60;;;;;;;18.39;51.67;98343.39;67858;1273;1016079;-68
2023/11/01 08:57:53;;;;;;;18.50;4.80;;;;;;;18.42;52.22;98342.45;67867;1273;1016008;-68
2023/11/01 09:00:55;;;;;;;16.30;4.70;;;;;;;18.56;52.23;98335.01;67928;1273;1015701;-68
2023/11/01 09:03:58;;;;;;;13.70;4.50;;;;;;;18.60;51.44;98337.95;67929;1273;1016272;-68
2023/11/01 09:07:00;;;;;;;14.60;4.10;;;;;;;18.75;52.17;98338.35;67863;1273;1016268;-69
2023/11/01 09:10:03;;;;;;;17.70;4.40;;;;;;;18.96;51.65;98340.34;67899;1273;1016855;-69
2023/11/01 09:13:06;;;;;;;17.80;4.60;;;;;;;18.96;50.88;98346.12;67912;1273;1016396;-68
2023/11/01 09:16:08;;;;;;;15.90;4.60;;;;;;;19.08;50.72;98348.15;67886;1273;1015999;-68
2023/11/01 09:19:10;;;;;;;18.80;5.10;;;;;;;19.25;51.12;98340.88;67891;1273;1016372;-68
2023/11/01 09:22:13;;;;;;;16.90;4.70;;;;;;;19.24;50.13;98342.41;67924;1273;1016322;-68
2023/11/01 09:25:16;;;;;;;;;;;;;;;19.27;50.08;98343.66;67966;1273;1016306;-68
2023/11/01 09:28:21;;;;;;;18.00;4.60;;;;;;;19.36;49.80;98344.38;67873;1273;1016202;-69
2023/11/01 09:31:23;;;;;;;15.00;3.90;;;;;;;19.45;49.56;98345.00;67957;1273;1016474;-68
2023/11/01 09:34:26;;;;;;;15.00;3.40;;;;;;;19.30;49.62;98344.66;67943;1273;1016648;-68
2023/11/01 09:37:28;;;;;;;17.00;4.10;;;;;;;19.23;49.41;98349.28;67909;1273;1018509;-68
2023/11/01 09:40:30;;;;;;;14.50;3.80;;;;;;;19.21;49.48;98345.52;67899;1273;1018651;-68
2023/11/01 09:43:33;;;;;;;15.80;4.30;;;;;;;19.35;49.78;98343.90;67858;1273;1016430;-68
2023/11/01 09:46:35;;;;;;;14.90;4.10;;;;;;;19.40;49.73;98347.98;67905;1273;1016077;-68
2023/11/01 09:49:38;;;;;;;;;;;;;;;19.28;49.46;98349.02;67912;1273;1016592;-67
2023/11/01 09:52:40;;;;;;;16.20;3.80;;;;;;;19.42;49.25;98348.81;67912;1273;1016400;-67
2023/11/01 09:55:43;;;;;;;20.70;5.50;;;;;;;19.44;49.20;98347.76;67906;1273;1016785;-68
2023/11/01 09:58:45;;;;;;;;;;;;;;;19.64;49.30;98345.52;67951;1273;1018931;-68
2023/11/01 10:01:48;;;;;;;21.60;5.10;;;;;;;19.70;48.54;98343.91;67907;1251;1016483;-68
2023/11/01 10:04:51;;;;;;;19.60;5.00;;;;;;;19.77;48.72;98342.28;67931;1273;1016380;-68
2023/11/01 10:07:53;;;;;;;15.80;4.00;;;;;;;19.90;48.68;98340.28;67921;1273;1016390;-68
2023/11/01 10:10:57;;;;;;;16.90;4.30;;;;;;;19.94;47.91;98339.96;67901;1273;1018727;-68
2023/11/01 10:14:00;;;;;;;19.70;4.30;;;;;;;19.79;48.13;98338.36;67922;1273;1016399;-68
2023/11/01 10:17:02;;;;;;;17.80;4.30;;;;;;;19.87;47.97;98335.56;67918;1273;1016285;-68
2023/11/01 10:20:05;;;;;;;18.90;4.00;;;;;;;19.96;48.81;98330.55;67877;1273;1016428;-68
2023/11/01 10:23:07;;;;;;;15.50;3.70;;;;;;;20.19;47.67;98326.09;67915;1273;1016720;-68
2023/11/01 10:26:10;;;;;;;;;;;;;;;20.31;47.94;98325.52;67937;1273;1016843;-68
2023/11/01 10:29:12;;;;;;;11.60;3.40;;;;;;;20.43;47.62;98322.07;67917;1273;1016083;-68
2023/11/01 10:32:15;;;;;;;12.70;3.30;;;;;;;20.63;47.44;98320.77;67875;1273;1016280;-68
2023/11/01 10:35:17;;;;;;;13.80;3.30;;;;;;;20.61;46.29;98319.04;67906;1273;1016460;-68
2023/11/01 10:38:20;;;;;;;12.30;3.20;;;;;;;20.48;45.98;98323.13;67922;1273;1016463;-66
2023/11/01 10:41:22;;;;;;;14.80;3.50;;;;;;;20.51;46.38;98319.45;67892;1273;1018261;-68
2023/11/01 10:44:25;;;;;;;15.20;3.50;;;;;;;20.63;45.85;98315.48;67912;1273;1016477;-68
2023/11/01 10:47:28;;;;;;;11.70;2.80;;;;;;;20.66;45.00;98323.80;67938;1273;1016446;-67
2023/11/01 10:50:33;;;;;;;9.20;2.90;;;;;;;20.59;45.41;98324.24;67913;1273;1016419;-67
2023/11/01 10:53:37;;;;;;;12.00;2.90;;;;;;;20.37;45.06;98329.47;67900;1273;1016066;-68
2023/11/01 10:56:39;;;;;;;13.00;3.20;;;;;;;20.18;45.31;98330.68;67903;1273;1016579;-68
2023/11/01 10:59:42;;;;;;;;;;;;;;;20.24;46.08;98330.69;67905;1273;1017808;-68
2023/11/01 11:02:44;;;;;;;10.50;2.80;;;;;;;20.39;45.64;98328.06;67900;1273;1016119;-67
2023/11/01 11:05:46;;;;;;;10.60;2.50;;;;;;;20.56;45.37;98324.98;67888;1273;1016644;-68
2023/11/01 11:08:49;;;;;;;11.70;2.90;;;;;;;20.60;44.52;98328.76;67927;1273;1016074;-67
2023/11/01 11:11:52;;;;;;;11.70;2.90;;;;;;;20.54;44.05;98332.64;67908;1273;1016432;-68
2023/11/01 11:14:54;;;;;;;7.90;2.50;;;;;;;20.63;44.80;98330.77;67940;1273;1016383;-67
2023/11/01 11:17:57;;;;;;;10.40;2.70;;;;;;;20.87;45.22;98323.25;67914;1273;1016285;-66
2023/11/01 11:21:00;;;;;;;10.60;2.50;;;;;;;20.94;44.68;98317.54;67922;1273;1016580;-66
2023/11/01 11:24:03;;;;;;;14.70;3.10;;;;;;;21.14;44.37;98319.96;67924;1273;1016388;-67
2023/11/01 11:27:06;;;;;;;7.20;2.40;;;;;;;21.01;44.44;98319.75;67885;1273;1016140;-68
2023/11/01 11:30:09;;;;;;;9.60;2.80;;;;;;;20.97;44.26;98321.45;67914;1273;1018264;-68
2023/11/01 11:33:11;;;;;;;8.00;2.40;;;;;;;20.96;44.17;98318.77;67938;1273;1016487;-68
2023/11/01 11:36:13;;;;;;;12.00;2.90;;;;;;;20.86;44.57;98320.20;67922;1252;1016377;-68
2023/11/01 11:39:16;;;;;;;12.00;3.10;;;;;;;21.41;44.72;98313.55;67890;1273;1016062;-68
2023/11/01 11:42:19;;;;;;;8.90;2.10;;;;;;;21.52;43.75;98308.07;67939;1273;1016332;-67
2023/11/01 11:45:21;;;;;;;8.50;2.30;;;;;;;21.23;43.01;98319.68;67924;1273;1016380;-68
2023/11/01 11:48:23;;;;;;;12.30;3.20;;;;;;;21.19;43.65;98308.92;67940;1273;1016601;-69
2023/11/01 11:51:26;;;;;;;10.10;2.60;;;;;;;21.06;43.13;98315.72;67874;1273;1018007;-67
2023/11/01 11:54:29;;;;;;;9.20;2.40;;;;;;;20.96;43.38;98311.46;67872;1273;1016345;-68
2023/11/01 11:57:32;;;;;;;10.80;2.20;;;;;;;21.06;42.79;98320.48;67902;1273;1018420;-67
2023/11/01 12:00:34;;;;;;;9.80;2.30;;;;;;;20.78;43.82;98321.81;67882;1273;1016342;-66
2023/11/01 12:03:37;;;;;;;;;;;;;;;20.58;43.88;98329.46;67886;1273;1015878;-69
2023/11/01 12:06:43;;;;;;;8.50;2.60;;;;;;;20.53;44.22;98328.30;67859;1273;1016135;-68
2023/11/01 12:09:46;;;;;;;12.30;2.90;;;;;;;20.63;44.49;98323.66;67888;1273;1016268;-67
2023/11/01 12:12:49;;;;;;;12.70;2.70;;;;;;;20.68;44.44;98318.71;67869;1273;1016474;-68
2023/11/01 12:15:51;;;;;;;8.40;2.30;;;;;;;20.73;44.68;98313.30;67862;1273;1018101;-68
2023/11/01 12:18:53;;;;;;;11.00;2.40;;;;;;;20.74;44.40;98313.88;67934;1273;1016225;-68
2023/11/01 12:21:56;;;;;;;7.90;1.80;;;;;;;20.90;43.93;98310.59;67917;1273;1018647;-68
2023/11/01 12:24:58;;;;;;;;;;;;;;;20.90;44.12;98313.55;67879;1273;1016419;-68
2023/11/01 12:28:01;;;;;;;10.00;2.70;;;;;;;20.87;44.12;98314.06;67859;1273;1016412;-68
2023/11/01 12:31:03;;;;;;;;;;;;;;;20.79;44.50;98314.38;67921;1273;1016438;-68
2023/11/01 12:34:05;;;;;;;16.60;4.20;;;;;;;20.87;44.66;98311.97;67919;1273;1016264;-67
2023/11/01 12:37:09;;;;;;;20.10;3.80;;;;;;;20.90;44.98;98312.65;68014;1273;1016322;-67
2023/11/01 12:40:12;;;;;;;16.40;4.70;;;;;;;20.89;43.56;98305.87;67873;1273;1016415;-67
2023/11/01 12:43:16;;;;;;;20.10;6.10;;;;;;;20.75;44.29;98302.98;67884;1273;1016178;-67
2023/11/01 12:46:19;;;;;;;10.70;3.00;;;;;;;20.76;44.60;98301.67;67916;1273;1016481;-63
2023/11/01 12:49:21;;;;;;;12.90;2.90;;;;;;;20.62;44.43;98296.40;67925;1273;1016739;-67
2023/11/01 12:52:24;;;;;;;16.20;3.90;;;;;;;20.84;44.89;98297.15;67917;1273;1016465;-67
2023/11/01 12:55:27;;;;;;;13.10;3.20;;;;;;;21.03;44.40;98292.50;67866;1273;1016485;-67
2023/11/01 12:58:30;;;;;;;27.10;8.20;;;;;;;21.31;44.23;98288.36;67917;1273;1018739;-68
2023/11/01 13:01:32;;;;;;;26.80;8.20;;;;;;;21.64;43.62;98282.69;67862;1273;1018575;-67
2023/11/01 13:04:35;;;;;;;24.70;8.80;;;;;;;21.72;43.89;98286.70;67871;1273;1016509;-67
2023/11/01 13:07:37;;;;;;;21.10;6.20;;;;;;;21.89;44.10;98286.83;67928;1273;1016321;-67
2023/11/01 13:10:40;;;;;;;21.30;6.20;;;;;;;21.92;43.08;98283.80;67886;1273;1016141;-67
2023/11/01 13:13:42;;;;;;;16.10;4.10;;;;;;;21.72;43.07;98284.92;67894;1273;1016379;-68
2023/11/01 13:16:45;;;;;;;15.50;3.30;;;;;;;21.56;42.91;98282.90;67699;1273;1015969;-68
2023/11/01 13:19:47;;;;;;;19.30;4.60;;;;;;;21.60;43.08;98285.05;67932;1273;1016450;-67
2023/11/01 13:22:50;;;;;;;20.50;6.20;;;;;;;21.75;43.03;98283.67;67919;1273;1016760;-67
2023/11/01 13:25:52;;;;;;;;;;;;;;;22.17;42.60;98283.25;67868;1273;1016411;-67
2023/11/01 13:28:55;;;;;;;21.60;6.30;;;;;;;22.37;41.81;98279.15;67896;1273;1016220;-68
2023/11/01 13:31:57;;;;;;;21.30;7.00;;;;;;;22.48;41.90;98276.02;67917;1273;1016501;-68
2023/11/01 13:35:00;;;;;;;12.90;3.00;;;;;;;22.40;42.20;98280.42;67913;1273;1016409;-68
2023/11/01 13:38:03;;;;;;;12.70;3.00;;;;;;;22.16;41.19;98280.36;67915;1273;1016240;-68
2023/11/01 13:41:05;;;;;;;12.10;3.70;;;;;;;21.86;41.71;98281.39;67901;1273;1016911;-68
2023/11/01 13:44:07;;;;;;;;;;;;;;;21.94;42.12;98283.83;67941;1273;1016332;-68
2023/11/01 13:47:10;;;;;;;10.40;2.80;;;;;;;21.99;41.80;98282.31;67930;1273;1016632;-67
2023/11/01 13:50:12;;;;;;;18.50;4.80;;;;;;;21.91;42.49;98282.95;67884;1273;1015891;-68
2023/11/01 13:53:15;;;;;;;;;;;;;;;21.71;42.81;98283.84;67898;1273;1016432;-68
2023/11/01 13:56:18;;;;;;;17.20;4.30;;;;;;;21.51;43.02;98289.63;67930;1273;1016698;-68